Time;durP1;ratioP1;P1;durP2;ratioP2;P2;SDS_P1;SDS_P2;PMS_P1;PMS_P2;Temp;Humidity;BMP_temperature;BMP_pressure;BME280_temperature;BME280_humidity;BME280_pressure;Samples;Min_cycle;Max_cycle;Signal;HPM_P1;HPM_P2
2022/05/11 00:01:42;;;;;;;10.23;9.20;;;18.40;98.00;;;18.54;100.00;100500.97;5081433;28;20055;-80
2022/05/11 00:04:10;;;;;;;10.13;9.13;;;18.70;98.30;;;18.62;100.00;100501.38;5078715;28;20040;-79
2022/05/11 00:06:38;;;;;;;10.60;9.68;;;18.30;98.30;;;18.69;100.00;100497.44;5080369;28;20056;-79
2022/05/11 00:09:11;;;;;;;11.05;9.57;;;18.40;98.70;;;18.73;100.00;100494.59;5064359;28;20075;-81
2022/05/11 00:11:40;;;;;;;9.80;8.90;;;18.40;98.80;;;18.77;100.00;100496.16;5081741;28;20049;-80
2022/05/11 00:14:07;;;;;;;11.68;9.75;;;18.40;98.80;;;18.74;100.00;100491.00;5081353;28;20570;-79
2022/05/11 00:16:35;;;;;;;9.98;9.00;;;18.40;98.50;;;18.81;100.00;100490.56;5064989;28;20072;-78
2022/05/11 00:19:03;;;;;;;10.40;9.40;;;18.50;98.50;;;18.85;100.00;100493.91;5064512;28;20102;-79
2022/05/11 00:21:30;;;;;;;11.57;10.45;;;18.50;98.70;;;18.87;100.00;100485.81;5047076;28;20053;-79
2022/05/11 00:23:58;;;;;;;11.98;10.05;;;18.60;98.50;;;18.87;100.00;100488.47;5065464;28;20049;-80
2022/05/11 00:26:25;;;;;;;10.93;9.93;;;19.00;98.60;;;18.92;100.00;100481.09;5065848;28;20084;-79
2022/05/11 00:28:52;;;;;;;9.85;8.85;;;18.50;98.30;;;18.80;100.00;100493.31;5063798;28;20070;-79
2022/05/11 00:31:19;;;;;;;11.07;9.95;;;18.50;98.20;;;18.74;100.00;100485.66;5082136;28;20060;-79
2022/05/11 00:33:47;;;;;;;10.25;9.25;;;18.50;97.90;;;18.66;100.00;100484.31;5083395;28;20067;-79
2022/05/11 00:36:14;;;;;;;10.68;9.68;;;18.40;98.00;;;18.56;100.00;100469.78;5065085;28;20060;-78
2022/05/11 00:38:44;;;;;;;10.43;9.40;;;18.40;97.90;;;18.48;100.00;100479.97;5065563;28;20100;-79
2022/05/11 00:41:11;;;;;;;;;;;18.30;97.90;;;18.43;100.00;100481.09;5064732;28;20045;-77
2022/05/11 00:43:43;;;;;;;10.90;9.90;;;18.30;97.80;;;18.27;100.00;100475.78;5080950;28;19920;-79
2022/05/11 00:46:48;;;;;;;9.77;8.68;;;18.20;97.80;;;18.24;100.00;100473.25;5065250;28;20080;-79
2022/05/11 00:49:34;;;;;;;9.90;8.90;;;18.10;98.00;;;18.22;100.00;100467.16;5066335;28;20052;-79
2022/05/11 00:52:14;;;;;;;9.68;8.57;;;18.10;98.20;;;18.30;100.00;100472.06;5081834;28;20047;-79
2022/05/11 00:55:08;;;;;;;9.65;8.80;;;18.10;98.30;;;18.35;100.00;100462.03;5064808;28;20100;-79
2022/05/11 00:57:50;;;;;;;9.45;8.55;;;18.10;98.50;;;18.42;100.00;100467.88;5082389;28;20056;-79
2022/05/11 01:00:19;;;;;;;11.15;9.13;;;18.10;99.00;;;18.34;100.00;100464.78;5081993;28;20104;-79
2022/05/11 01:02:53;;;;;;;11.80;9.50;;;18.10;98.70;;;18.38;100.00;100466.31;5045649;28;20049;-79
2022/05/11 01:05:22;;;;;;;10.45;9.50;;;18.10;98.80;;;18.29;100.00;100473.00;5060358;28;20095;-79
2022/05/11 01:07:55;;;;;;;9.88;8.90;;;18.10;98.70;;;18.31;100.00;100465.78;5062101;28;20053;-79
2022/05/11 01:10:25;;;;;;;12.95;8.98;;;18.10;98.90;;;18.31;100.00;100462.28;5061372;28;20060;-79
2022/05/11 01:12:55;;;;;;;;;;;18.10;98.70;;;18.25;100.00;100460.81;5046313;28;20052;-79
2022/05/11 01:15:28;;;;;;;11.57;9.15;;;18.10;98.70;;;18.22;100.00;100453.84;5061364;28;20299;-79
2022/05/11 01:17:57;;;;;;;10.65;9.60;;;18.00;98.80;;;18.22;100.00;100455.66;5061796;28;20405;-79
2022/05/11 01:20:44;;;;;;;10.00;9.10;;;18.00;98.70;;;18.19;100.00;100459.34;5050324;28;20044;-79
2022/05/11 01:23:31;;;;;;;11.57;9.18;;;17.90;99.30;;;18.19;100.00;100459.34;5061795;28;20049;-79
2022/05/11 01:25:59;;;;;;;11.50;9.73;;;17.90;99.50;;;18.10;100.00;100458.03;5043767;28;20057;-79
2022/05/11 01:28:29;;;;;;;9.43;8.52;;;17.90;99.20;;;18.08;100.00;100454.63;5060848;28;20045;-79
2022/05/11 01:31:05;;;;;;;;;;;18.00;99.20;;;18.13;100.00;100457.88;5062930;28;20083;-78
2022/05/11 01:33:37;;;;;;;9.68;8.70;;;17.80;99.10;;;17.98;100.00;100458.66;5060382;28;19932;-79
2022/05/11 01:36:32;;;;;;;11.00;9.38;;;17.80;99.00;;;17.90;100.00;100456.41;5062073;28;20049;-79
2022/05/11 01:39:08;;;;;;;13.30;9.63;;;17.80;99.00;;;17.87;100.00;100456.59;5061193;28;20061;-79
2022/05/11 01:41:49;;;;;;;10.40;9.32;;;17.90;99.20;;;17.91;100.00;100459.94;5061715;28;20135;-79
2022/05/11 01:44:19;;;;;;;14.20;9.32;;;17.70;99.10;;;17.79;100.00;100459.66;5066620;28;20983;-79
2022/05/11 01:46:50;;;;;;;10.65;9.68;;;18.10;99.30;;;17.81;100.00;100455.09;5082372;28;20054;-79
2022/05/11 01:49:20;;;;;;;10.50;9.52;;;17.60;99.30;;;17.81;100.00;100456.94;5065134;28;20040;-78
2022/05/11 01:51:47;;;;;;;10.25;9.35;;;17.60;99.30;;;17.65;100.00;100447.09;5065376;28;20055;-79
2022/05/11 01:54:14;;;;;;;10.75;9.75;;;17.60;99.40;;;17.66;100.00;100459.44;5065156;28;20051;-79
2022/05/11 01:56:41;;;;;;;10.65;9.43;;;17.50;99.40;;;17.64;100.00;100448.03;5082051;28;20048;-78
2022/05/11 01:59:09;;;;;;;10.45;9.55;;;17.50;99.50;;;17.69;100.00;100453.09;5081192;28;20410;-79
2022/05/11 02:01:40;;;;;;;9.75;8.85;;;17.50;99.20;;;17.60;100.00;100443.78;5064877;28;20121;-79
2022/05/11 02:07:49;;;;;;;12.57;10.13;;;17.40;99.40;;;17.62;100.00;100446.38;5064960;28;20045;-78
2022/05/11 02:09:45;;;;;;;10.88;9.77;;;17.30;99.30;;;17.43;100.00;100447.34;5081155;28;20059;-78
2022/05/11 02:12:12;;;;;;;10.00;9.10;;;17.30;99.40;;;17.37;100.00;100447.66;5081220;28;20097;-80
2022/05/11 02:14:40;;;;;;;10.02;9.13;;;17.30;99.40;;;17.27;100.00;100449.91;5065654;28;20045;-78
2022/05/11 02:17:07;;;;;;;10.20;9.30;;;17.30;99.50;;;17.26;100.00;100454.38;5066429;28;20049;-79
2022/05/11 02:19:37;;;;;;;11.18;10.10;;;17.30;99.40;;;17.38;100.00;100444.03;5077976;28;20037;-79
2022/05/11 02:22:05;;;;;;;11.40;10.38;;;17.20;99.30;;;17.37;100.00;100442.31;5062041;28;20059;-80
2022/05/11 02:24:32;;;;;;;10.68;9.65;;;17.10;99.50;;;17.31;100.00;100448.81;5048512;28;20044;-79
2022/05/11 02:27:03;;;;;;;12.63;9.38;;;17.20;99.60;;;17.34;100.00;100440.72;5065560;28;20045;-79
2022/05/11 02:29:31;;;;;;;10.48;9.55;;;17.10;99.50;;;17.17;100.00;100440.69;5066936;28;20064;-79
2022/05/11 02:31:58;;;;;;;10.45;9.55;;;17.20;99.70;;;17.22;100.00;100449.31;5086461;28;20056;-79
2022/05/11 02:37:10;;;;;;;10.98;9.98;;;17.10;99.60;;;17.13;100.00;100453.28;5085787;28;20052;-79
2022/05/11 02:39:37;;;;;;;11.07;9.98;;;17.20;99.70;;;17.15;100.00;100457.56;5069337;28;20104;-79
2022/05/11 02:42:05;;;;;;;11.73;10.20;;;17.70;99.90;;;17.11;100.00;100449.84;5095698;28;20056;-78
2022/05/11 02:44:32;;;;;;;11.20;9.73;;;17.00;99.90;;;17.09;100.00;100455.22;5096000;28;20221;-79
2022/05/11 02:46:59;;;;;;;10.32;9.38;;;17.00;99.90;;;17.00;100.00;100453.88;5077623;28;20042;-79
2022/05/11 02:49:26;;;;;;;11.10;10.00;;;16.90;99.90;;;17.07;100.00;100449.13;5066970;28;20111;-79
2022/05/11 02:51:53;;;;;;;12.00;10.77;;;16.90;99.90;;;16.98;100.00;100453.09;5083980;28;20064;-79
2022/05/11 02:54:20;;;;;;;10.77;9.65;;;16.90;99.90;;;16.96;100.00;100451.41;5067739;28;20056;-80
2022/05/11 02:56:47;;;;;;;10.90;9.90;;;16.80;99.90;;;16.93;100.00;100449.75;5058739;28;20066;-80
2022/05/11 02:59:14;;;;;;;10.63;9.73;;;17.10;99.90;;;16.93;100.00;100444.44;5076096;28;20068;-81
2022/05/11 03:01:41;;;;;;;10.40;9.40;;;16.80;99.90;;;16.92;100.00;100447.22;5059030;28;20044;-80
2022/05/11 03:04:11;;;;;;;10.38;9.48;;;16.80;99.90;;;16.96;100.00;100446.09;5076023;28;20075;-80
2022/05/11 03:06:38;;;;;;;10.93;9.88;;;16.80;99.90;;;16.94;100.00;100448.88;5076206;28;20058;-79
2022/05/11 03:09:05;;;;;;;10.52;9.52;;;16.80;99.90;;;16.92;100.00;100440.06;5075406;28;20504;-80
2022/05/11 03:11:31;;;;;;;11.73;10.63;;;16.70;99.80;;;16.83;100.00;100443.22;5058967;28;20049;-79
2022/05/11 03:13:58;;;;;;;12.88;10.38;;;16.70;99.90;;;16.81;100.00;100435.28;5075760;28;20043;-80
2022/05/11 03:16:26;;;;;;;11.90;10.10;;;16.70;99.90;;;16.75;100.00;100435.63;5058690;28;20079;-79
2022/05/11 03:18:53;;;;;;;10.80;9.77;;;16.70;99.90;;;16.67;100.00;100435.09;5074635;28;20052;-79
2022/05/11 03:21:21;;;;;;;11.30;10.25;;;16.60;99.90;;;16.64;100.00;100438.78;5074641;28;20584;-79
2022/05/11 03:23:48;;;;;;;10.85;9.88;;;16.50;99.90;;;16.52;100.00;100437.56;5074517;28;20051;-81
2022/05/11 03:26:15;;;;;;;10.63;9.63;;;16.50;99.90;;;16.56;100.00;100446.25;5056931;28;20075;-78
2022/05/11 03:28:42;;;;;;;10.63;9.65;;;16.60;99.90;;;16.58;100.00;100439.06;5074234;28;20044;-80
2022/05/11 03:31:13;;;;;;;13.20;10.32;;;16.40;99.90;;;16.54;100.00;100435.69;5074531;28;20508;-79
2022/05/11 03:36:26;;;;;;;11.65;10.55;;;16.40;99.90;;;16.39;100.00;100442.59;5071994;28;20404;-79
2022/05/11 03:38:53;;;;;;;11.57;10.48;;;16.40;99.90;;;16.41;100.00;100445.22;5054012;28;20049;-78
2022/05/11 03:41:20;;;;;;;10.52;9.48;;;16.30;99.90;;;16.48;100.00;100435.16;5072077;28;20523;-78
2022/05/11 03:43:47;;;;;;;10.30;9.40;;;16.30;99.90;;;16.51;100.00;100432.34;5071302;28;20040;-77
2022/05/11 03:46:15;;;;;;;12.13;10.35;;;16.30;99.90;;;16.46;100.00;100429.91;5071252;28;20127;-79
2022/05/11 03:48:42;;;;;;;11.18;10.15;;;16.30;99.90;;;16.45;100.00;100433.50;5070557;28;20104;-78
2022/05/11 03:51:10;;;;;;;11.23;10.13;;;16.30;99.90;;;16.42;100.00;100428.34;5072795;28;20051;-79
2022/05/11 03:53:38;;;;;;;10.50;9.35;;;16.30;99.90;;;16.42;100.00;100434.50;5046347;28;20044;-78
2022/05/11 03:56:05;;;;;;;10.82;9.43;;;16.30;99.90;;;16.42;100.00;100434.50;5052281;28;20056;-79
2022/05/11 03:58:35;;;;;;;12.73;11.07;;;16.20;99.90;;;16.40;100.00;100433.72;5034917;28;20052;-78
2022/05/11 04:01:02;;;;;;;12.13;9.77;;;16.20;99.90;;;16.32;100.00;100433.22;5056194;28;20060;-78
2022/05/11 04:03:29;;;;;;;12.45;11.25;;;16.30;99.90;;;16.35;100.00;100433.06;5077437;28;20049;-78
2022/05/11 04:05:56;;;;;;;12.55;11.25;;;16.20;99.90;;;16.21;100.00;100431.06;5076184;28;20040;-78
2022/05/11 04:08:26;;;;;;;12.38;9.52;;;17.00;99.90;;;16.10;100.00;100428.06;5053523;28;20056;-79
2022/05/11 04:10:53;;;;;;;11.80;10.80;;;16.10;99.90;;;16.13;100.00;100439.38;5064339;28;20059;-80
2022/05/11 04:13:20;;;;;;;11.82;10.68;;;16.10;99.90;;;15.94;100.00;100436.72;5074683;28;20063;-81
2022/05/11 04:15:52;;;;;;;12.02;11.00;;;16.10;99.90;;;16.10;100.00;100434.22;5038412;28;20056;-78
2022/05/11 04:18:23;;;;;;;10.68;9.52;;;16.00;99.90;;;16.19;100.00;100430.25;5056287;28;20045;-81
2022/05/11 04:20:50;;;;;;;11.60;10.50;;;16.00;99.90;;;16.16;100.00;100431.28;5069270;28;20507;-78
2022/05/11 04:23:17;;;;;;;12.10;10.90;;;16.00;99.90;;;16.27;100.00;100436.09;5053835;28;20036;-77
2022/05/11 04:25:44;;;;;;;11.48;10.43;;;16.00;99.90;;;16.25;100.00;100431.78;5071820;28;20059;-79
2022/05/11 04:28:12;;;;;;;10.93;9.82;;;16.10;99.90;;;16.18;100.00;100439.16;5071541;28;20484;-79
2022/05/11 04:30:40;;;;;;;12.38;10.93;;;16.00;99.90;;;16.13;100.00;100439.38;5069702;28;20406;-80
2022/05/11 04:33:08;;;;;;;11.15;10.05;;;16.10;99.90;;;16.14;100.00;100445.56;5068744;28;20472;-79
2022/05/11 04:35:36;;;;;;;11.50;10.43;;;16.00;99.90;;;16.16;100.00;100438.38;5053289;28;20052;-80
2022/05/11 04:38:06;;;;;;;12.48;10.70;;;16.00;99.90;;;16.03;100.00;100443.41;5053628;28;20040;-80
2022/05/11 04:40:34;;;;;;;11.45;10.45;;;16.00;99.90;;;16.08;100.00;100438.72;5036556;28;20041;-81
2022/05/11 04:43:10;;;;;;;12.23;11.13;;;16.00;99.90;;;16.01;100.00;100448.75;5060612;28;20099;-81
2022/05/11 04:45:43;;;;;;;13.73;11.18;;;15.90;99.90;;;16.01;100.00;100446.09;5056699;28;20135;-81
2022/05/11 04:48:12;;;;;;;11.73;10.68;;;15.90;99.90;;;16.02;100.00;100449.63;5058487;28;20044;-83
2022/05/11 04:50:42;;;;;;;11.85;10.70;;;15.90;99.90;;;16.15;100.00;100448.13;5074094;28;20080;-80
2022/05/11 04:53:12;;;;;;;12.68;11.57;;;15.90;99.90;;;16.18;100.00;100455.09;5036558;28;20131;-81
2022/05/11 04:55:40;;;;;;;11.23;9.95;;;16.10;99.90;;;16.20;100.00;100453.22;5075330;28;20102;-79
2022/05/11 04:58:14;;;;;;;11.65;10.23;;;16.00;99.90;;;16.19;100.00;100448.00;5077098;28;20048;-81
2022/05/11 05:00:41;;;;;;;12.73;11.52;;;16.00;99.90;;;16.15;100.00;100449.94;5071517;28;20041;-78
2022/05/11 05:03:11;;;;;;;12.02;10.82;;;16.00;99.90;;;16.26;100.00;100449.44;5036274;28;20390;-78
2022/05/11 05:05:39;;;;;;;15.15;10.27;;;16.00;99.90;;;16.25;100.00;100448.59;5069173;28;20090;-78
2022/05/11 05:08:08;;;;;;;11.13;9.75;;;16.10;99.90;;;16.28;100.00;100451.09;5069940;28;20048;-76
2022/05/11 05:10:36;;;;;;;11.45;10.27;;;16.10;99.90;;;16.36;100.00;100440.09;5052745;28;20048;-78
2022/05/11 05:13:06;;;;;;;12.50;10.52;;;16.10;99.90;;;16.46;100.00;100451.16;5069478;28;20706;-77
2022/05/11 05:15:36;;;;;;;11.32;10.32;;;16.20;99.90;;;16.43;100.00;100441.53;5069777;28;20071;-78
2022/05/11 05:18:06;;;;;;;11.88;10.65;;;17.60;99.90;;;16.46;100.00;100451.16;5053595;28;20086;-76
2022/05/11 05:20:35;;;;;;;10.60;9.60;;;16.20;99.90;;;16.55;100.00;100441.88;5052961;28;20055;-77
2022/05/11 05:23:02;;;;;;;10.15;9.18;;;16.30;99.90;;;16.59;100.00;100446.97;5053204;28;20040;-77
2022/05/11 05:25:30;;;;;;;11.95;10.20;;;16.30;99.90;;;16.62;100.00;100445.09;5073670;28;20123;-78
2022/05/11 05:31:04;;;;;;;12.85;9.65;;;16.40;99.90;;;16.67;100.00;100449.25;5071574;28;20044;-78
2022/05/11 05:33:33;;;;;;;11.13;9.73;;;16.40;99.90;;;16.77;100.00;100443.50;5070313;28;20048;-77
2022/05/11 05:36:02;;;;;;;;;;;16.50;99.90;;;16.87;100.00;100445.66;5053176;28;20556;-78
2022/05/11 05:38:33;;;;;;;10.52;9.63;;;16.50;99.90;;;16.91;100.00;100451.66;5067905;28;19925;-79
2022/05/11 05:41:00;;;;;;;13.23;9.73;;;16.70;99.90;;;16.94;100.00;100451.53;5068819;28;20063;-78
2022/05/11 05:43:27;;;;;;;10.65;9.60;;;16.60;99.90;;;16.98;100.00;100450.44;5068852;28;20132;-76
2022/05/11 05:45:55;;;;;;;11.32;8.82;;;16.70;99.90;;;17.02;100.00;100448.50;5053192;28;20044;-79
2022/05/11 05:48:24;;;;;;;11.00;9.90;;;16.70;99.90;;;17.00;100.00;100461.88;5053475;28;20055;-78
2022/05/11 05:50:51;;;;;;;10.30;9.38;;;16.80;99.90;;;17.09;100.00;100465.84;5035300;28;20464;-78
2022/05/11 05:53:21;;;;;;;12.35;10.07;;;16.90;99.90;;;17.13;100.00;100454.13;5052718;28;20136;-78
2022/05/11 05:55:49;;;;;;;10.57;9.48;;;16.80;99.90;;;17.21;100.00;100460.88;5033117;28;20049;-78
2022/05/11 05:58:17;;;;;;;11.43;10.05;;;16.90;99.90;;;17.24;100.00;100456.25;5033239;28;20087;-78
2022/05/11 06:00:45;;;;;;;11.88;10.38;;;17.00;99.90;;;17.31;100.00;100450.63;5022989;28;20047;-78
2022/05/11 06:03:17;;;;;;;11.30;9.18;;;17.00;99.90;;;17.38;100.00;100460.88;5072047;28;20044;-77
2022/05/11 06:05:44;;;;;;;10.65;9.65;;;17.10;99.90;;;17.49;100.00;100455.00;5055651;28;20080;-79
2022/05/11 06:08:15;;;;;;;11.05;9.95;;;17.30;99.90;;;17.55;100.00;100448.50;5055057;28;20040;-78
2022/05/11 06:10:46;;;;;;;;;;;17.20;99.90;;;17.65;100.00;100444.44;5073079;28;20051;-77
2022/05/11 06:13:17;;;;;;;10.75;9.40;;;17.30;99.90;;;17.74;100.00;100447.53;5069221;28;19928;-77
2022/05/11 06:15:44;;;;;;;10.38;9.27;;;17.30;99.90;;;17.77;100.00;100442.03;5056010;28;20073;-77
2022/05/11 06:18:14;;;;;;;10.68;9.68;;;17.40;99.90;;;17.88;100.00;100444.16;5072054;28;20048;-77
2022/05/11 06:20:41;;;;;;;10.38;9.38;;;17.50;99.90;;;17.95;100.00;100450.84;5055223;28;20040;-77
2022/05/11 06:23:08;;;;;;;9.57;8.68;;;17.60;99.90;;;18.04;100.00;100447.75;5055560;28;20041;-77
2022/05/11 06:25:38;;;;;;;9.20;8.32;;;17.70;99.90;;;18.20;100.00;100449.56;5076677;28;20048;-82
2022/05/11 06:28:08;;;;;;;9.48;8.23;;;17.80;99.90;;;18.32;100.00;100445.38;5077724;28;20104;-82
2022/05/11 06:30:35;;;;;;;;;;;17.90;99.80;;;18.46;100.00;100448.13;5077810;28;20045;-82
2022/05/11 06:33:03;;;;;;;10.07;9.10;;;18.30;99.90;;;18.54;100.00;100445.88;5077228;28;19932;-81
2022/05/11 06:35:48;;;;;;;9.68;8.68;;;18.10;99.80;;;18.63;100.00;100449.81;5063487;28;20670;-81
2022/05/11 06:38:18;;;;;;;8.50;7.63;;;18.20;99.70;;;18.75;100.00;100439.41;5062013;28;20036;-81
2022/05/11 06:40:45;;;;;;;9.00;8.20;;;18.40;99.70;;;18.78;100.00;100428.56;5078350;28;20040;-82
2022/05/11 06:43:31;;;;;;;8.73;7.85;;;18.50;99.50;;;18.99;100.00;100437.16;5078671;28;20098;-82
2022/05/11 06:46:01;;;;;;;8.48;6.47;;;18.60;99.60;;;19.09;100.00;100432.16;5058290;28;20500;-78
2022/05/11 06:48:28;;;;;;;9.23;7.85;;;18.70;99.00;;;19.20;100.00;100437.72;5072820;28;20052;-79
2022/05/11 06:50:55;;;;;;;9.20;7.22;;;18.80;99.00;;;19.31;100.00;100434.41;5072018;28;20568;-78
2022/05/11 06:53:25;;;;;;;7.50;6.32;;;18.90;98.80;;;19.63;100.00;100438.75;5074531;28;20059;-78
2022/05/11 07:01:26;;;;;;;9.40;6.75;;;19.50;98.20;;;19.90;100.00;100440.66;5091228;28;20116;-80
2022/05/11 07:03:53;;;;;;;7.63;6.72;;;19.60;97.70;;;19.94;100.00;100434.22;5081212;28;20054;-80
2022/05/11 07:06:21;;;;;;;7.78;7.00;;;20.10;97.90;;;20.07;100.00;100439.66;5055342;28;20117;-79
2022/05/11 07:08:48;;;;;;;8.13;6.68;;;19.80;97.70;;;20.15;100.00;100436.50;5022181;28;20048;-78
2022/05/11 07:14:03;;;;;;;7.53;5.88;;;19.90;97.70;;;20.40;100.00;100433.97;5038162;28;20048;-80
2022/05/11 07:16:30;;;;;;;6.68;6.07;;;19.90;97.40;;;20.44;100.00;100423.09;5021960;28;20665;-79
2022/05/11 07:18:57;;;;;;;8.32;6.45;;;20.10;97.40;;;20.54;100.00;100421.53;5053933;28;20669;-80
2022/05/11 07:21:24;;;;;;;7.85;6.72;;;20.20;97.50;;;20.65;100.00;100415.47;5054405;28;20056;-79
2022/05/11 07:23:54;;;;;;;6.88;5.78;;;20.30;97.10;;;20.89;100.00;100415.69;5056033;28;20056;-78
2022/05/11 07:26:21;;;;;;;6.55;5.97;;;20.40;96.80;;;20.99;100.00;100415.94;5055055;28;20553;-79
2022/05/11 07:28:48;;;;;;;8.00;5.93;;;20.50;96.80;;;21.07;100.00;100418.09;5056565;28;20053;-80
2022/05/11 07:31:15;;;;;;;6.65;5.18;;;20.60;96.30;;;21.16;100.00;100406.78;5069888;28;20049;-79
2022/05/11 07:33:44;;;;;;;7.43;5.70;;;20.70;96.20;;;21.32;100.00;100409.25;5073419;28;20044;-79
2022/05/11 07:36:12;;;;;;;5.80;5.20;;;20.80;96.20;;;21.40;100.00;100403.38;5056452;28;20070;-79
2022/05/11 07:38:40;;;;;;;6.05;5.45;;;20.90;96.00;;;21.46;100.00;100410.97;5072026;28;20139;-79
2022/05/11 07:41:07;;;;;;;6.45;5.40;;;21.00;95.80;;;21.56;100.00;100405.84;5072412;28;20547;-79
2022/05/11 07:43:37;;;;;;;7.05;5.20;;;21.10;95.80;;;21.64;100.00;100411.50;5072876;28;20520;-78
2022/05/11 07:46:04;;;;;;;6.10;5.53;;;21.30;95.60;;;21.72;100.00;100404.81;5064136;28;20116;-79
2022/05/11 07:48:31;;;;;;;6.35;5.53;;;21.40;95.40;;;21.86;100.00;100403.81;5072979;28;20286;-78
2022/05/11 07:50:58;;;;;;;5.30;4.80;;;21.40;95.50;;;21.89;100.00;100403.59;5073390;28;20046;-81
2022/05/11 07:53:25;;;;;;;8.27;5.10;;;21.50;95.00;;;21.95;100.00;100408.53;5054129;28;20041;-80
2022/05/11 07:59:52;;;;;;;8.25;5.20;;;21.60;95.00;;;22.06;100.00;100400.56;5073658;28;20104;-79
2022/05/11 08:01:25;;;;;;;6.55;4.50;;;21.80;94.40;;;22.30;99.97;100401.56;5056592;28;20074;-79
2022/05/11 08:03:54;;;;;;;6.95;4.78;;;21.80;94.20;;;22.36;100.00;100391.25;5068657;28;20079;-78
2022/05/11 08:06:21;;;;;;;7.10;5.50;;;22.00;94.30;;;22.45;95.33;100387.03;5052616;28;20619;-79
2022/05/11 08:08:49;;;;;;;8.00;4.88;;;22.00;93.80;;;22.53;91.82;100391.84;5070244;28;20062;-79
2022/05/11 08:11:16;;;;;;;6.15;4.65;;;22.10;93.40;;;22.61;91.15;100391.28;5070118;28;20059;-78
2022/05/11 08:13:43;;;;;;;6.90;5.13;;;22.30;93.30;;;22.70;91.00;100382.56;5050572;28;20063;-77
2022/05/11 08:16:10;;;;;;;6.70;4.85;;;22.30;93.20;;;22.79;86.95;100389.06;5070107;28;20040;-78
2022/05/11 08:18:38;;;;;;;5.10;4.63;;;22.40;92.80;;;22.84;87.01;100386.88;5072999;28;20136;-77
2022/05/11 08:21:05;;;;;;;6.35;4.70;;;22.50;92.80;;;22.91;85.73;100379.22;5073056;28;20056;-78
2022/05/11 08:23:32;;;;;;;5.57;4.43;;;22.50;92.60;;;23.03;83.01;100378.28;5057766;28;20094;-79
2022/05/11 08:26:00;;;;;;;4.47;4.07;;;22.60;92.40;;;23.12;81.88;100376.72;5057516;28;20132;-77
2022/05/11 08:28:27;;;;;;;5.60;4.80;;;22.70;92.30;;;23.20;81.62;100377.00;5041109;28;20045;-79
2022/05/11 08:33:41;;;;;;;5.30;4.80;;;22.80;91.80;;;23.34;78.28;100375.94;5074782;28;20044;-77
2022/05/11 08:36:29;;;;;;;5.90;4.28;;;23.00;91.70;;;23.42;79.22;100369.97;5075340;28;20036;-78
2022/05/11 08:39:04;;;;;;;6.20;5.25;;;23.00;91.80;;;23.52;75.44;100378.16;5057004;28;20037;-79
2022/05/11 08:41:51;;;;;;;6.18;4.18;;;23.10;91.40;;;23.64;75.46;100370.94;5073704;28;20051;-79
2022/05/11 08:44:32;;;;;;;6.38;4.55;;;23.20;91.40;;;23.72;75.09;100373.91;5073732;28;20510;-78
2022/05/11 08:47:24;;;;;;;9.75;4.38;;;23.30;91.30;;;23.79;73.75;100376.94;5056734;28;20048;-78
2022/05/11 08:50:09;;;;;;;4.68;4.18;;;23.30;91.10;;;23.85;72.65;100368.38;5071693;28;20071;-77
2022/05/11 08:53:02;;;;;;;6.05;5.15;;;23.40;91.00;;;24.01;71.89;100370.69;5071505;28;20067;-78
2022/05/11 08:55:50;;;;;;;5.20;4.70;;;23.50;90.90;;;24.06;70.53;100373.06;5051721;28;20092;-80
2022/05/11 08:58:28;;;;;;;6.60;4.38;;;23.60;90.70;;;24.05;70.64;100361.44;5051996;28;20052;-79
2022/05/11 09:00:57;;;;;;;7.07;4.35;;;23.60;90.60;;;24.16;75.20;100376.69;5050042;28;20464;-79
2022/05/11 09:03:34;;;;;;;4.30;3.90;;;23.60;91.10;;;24.20;68.65;100358.47;5050361;28;20067;-77
2022/05/11 09:06:16;;;;;;;5.05;4.55;;;23.70;90.40;;;24.28;70.15;100358.72;5018007;28;20106;-77
2022/05/11 09:08:43;;;;;;;6.60;5.47;;;23.70;90.50;;;24.36;69.50;100356.22;5021248;28;20051;-81
2022/05/11 09:11:16;;;;;;;4.70;4.20;;;23.80;90.40;;;24.52;68.59;100348.75;5058475;28;20071;-80
2022/05/11 09:13:44;;;;;;;8.13;5.03;;;23.90;90.30;;;24.57;68.33;100344.66;5075157;28;20559;-81
2022/05/11 09:16:27;;;;;;;6.88;5.15;;;24.00;90.30;;;24.73;68.78;100338.84;5074639;28;20123;-81
2022/05/11 09:18:56;;;;;;;5.18;4.70;;;24.10;90.30;;;24.79;66.21;100337.53;5057142;28;20044;-82
2022/05/11 09:21:36;;;;;;;5.18;4.68;;;24.30;90.00;;;24.87;65.45;100340.41;5072997;28;20072;-81
2022/05/11 09:24:34;;;;;;;5.93;5.32;;;24.40;89.80;;;24.98;67.04;100346.72;5073142;28;20037;-81
2022/05/11 09:27:22;;;;;;;8.45;4.88;;;24.40;90.00;;;24.96;63.91;100330.69;5072488;28;20565;-81
2022/05/11 09:30:01;;;;;;;4.95;4.45;;;24.50;89.00;;;25.08;64.54;100327.94;5072208;28;20131;-82
2022/05/11 09:32:37;;;;;;;5.22;4.72;;;24.50;89.20;;;25.16;61.54;100325.44;5052194;28;20045;-79
2022/05/11 09:35:36;;;;;;;5.72;4.55;;;24.60;88.30;;;25.24;62.20;100328.31;5021973;28;20068;-80
2022/05/11 09:38:21;;;;;;;5.85;4.60;;;24.70;88.30;;;25.35;60.65;100325.53;5023902;28;20049;-80
2022/05/11 09:41:10;;;;;;;5.35;4.80;;;24.80;87.80;;;25.47;58.27;100328.16;5054980;28;20068;-82
2022/05/11 09:43:58;;;;;;;9.93;4.97;;;24.90;86.90;;;25.48;57.86;100333.41;5054320;28;20069;-83
2022/05/11 09:46:34;;;;;;;5.63;4.60;;;25.00;86.60;;;25.61;58.75;100321.56;5037903;28;20049;-81
2022/05/11 09:49:16;;;;;;;5.95;5.00;;;25.10;87.00;;;25.68;56.01;100322.72;5039896;28;20577;-82
2022/05/11 09:51:46;;;;;;;5.15;4.28;;;25.10;85.70;;;25.77;57.66;100321.06;5073404;28;20041;-82
2022/05/11 09:54:32;;;;;;;;;;;25.20;86.30;;;25.97;55.58;100313.84;5055511;28;20134;-82
2022/05/11 09:57:11;;;;;;;4.80;4.13;;;25.30;85.70;;;26.06;53.98;100312.16;5065146;28;20686;-81
2022/05/11 09:59:49;;;;;;;7.40;4.32;;;25.40;84.90;;;26.22;54.92;100303.56;5072400;28;20627;-78
2022/05/11 10:02:22;;;;;;;5.22;3.92;;;25.60;85.30;;;26.26;51.60;100304.16;5054443;28;20144;-79
2022/05/11 10:05:10;;;;;;;8.38;4.05;;;25.70;83.70;;;26.33;52.41;100294.50;5049188;28;20467;-79
2022/05/11 10:08:06;;;;;;;7.00;4.18;;;25.80;83.80;;;26.36;50.87;100283.41;5050783;28;20048;-79
2022/05/11 10:10:58;;;;;;;4.10;3.42;;;25.80;83.00;;;26.48;50.26;100289.53;5040452;28;20068;-79
2022/05/11 10:21:50;;;;;;;4.40;4.00;;;25.90;82.60;;;26.70;50.54;100290.22;5066901;28;20051;-79
2022/05/11 10:23:22;;;;;;;4.68;3.88;;;26.20;80.70;;;26.92;46.35;100299.88;5066672;28;20120;-79
2022/05/11 10:26:00;;;;;;;7.72;4.20;;;26.40;79.80;;;26.93;46.96;100273.72;5048485;28;20504;-78
2022/05/11 10:28:51;;;;;;;8.55;4.28;;;26.40;80.10;;;27.14;47.22;100278.91;5052871;28;20044;-79
2022/05/11 10:31:47;;;;;;;4.20;3.70;;;26.50;80.40;;;27.03;46.18;100269.16;5070202;28;20049;-80
2022/05/11 10:34:23;;;;;;;5.43;3.95;;;26.50;78.90;;;27.21;45.18;100271.94;5065926;28;20139;-80
2022/05/11 10:37:15;;;;;;;4.05;3.45;;;26.60;78.40;;;27.41;44.55;100252.94;5066638;28;20040;-79
2022/05/11 10:40:32;;;;;;;5.07;4.30;;;26.70;78.30;;;27.55;44.79;100270.50;5049686;28;20045;-80
2022/05/11 10:43:50;;;;;;;4.88;3.97;;;26.80;78.00;;;27.56;43.85;100272.25;5067283;28;20055;-81
2022/05/11 10:46:45;;;;;;;5.40;3.70;;;27.10;77.00;;;27.72;43.64;100261.63;5057495;28;20115;-79
2022/05/11 10:49:53;;;;;;;4.00;3.30;;;27.20;76.40;;;27.73;42.68;100262.47;5073438;28;20075;-78
2022/05/11 10:52:54;;;;;;;6.07;4.47;;;27.20;75.50;;;27.62;42.17;100258.13;5050369;28;20592;-80
2022/05/11 10:55:56;;;;;;;5.15;4.07;;;27.20;74.20;;;27.59;43.16;100274.63;5076683;28;20055;-81
2022/05/11 10:58:45;;;;;;;5.45;3.78;;;27.10;75.10;;;27.71;43.56;100257.22;5073307;28;20045;-79
2022/05/11 11:01:15;;;;;;;10.70;4.30;;;27.10;75.60;;;27.74;43.18;100235.28;5071201;28;20044;-79